Kings Canyon National Pk, California
Current Conditions -  °F | °C
As of 4:56 PM on Thursday 27 Nov 2014 (Local Time) from KBIH Reporting Station
Clear Clear  
Wind Chill: 54°   Ceiling: Unl
Heat Index: 54°   Visibility: 10mi
Dew Point: 17°   Wind: 3mph
Humidity: 23%   Direction: 230°SW
Pressure: 30.2"   Gusts: NA
Location:  36.7872°N, 118.66°W
Report Text: KBIH 280056Z AUTO 23003KT 10SM CLR 12/M08 A3020 RMK AO2 SLP213 T01221083
Loading
Personal Weather Stations






























Interactive Weather Map New forecast layout! Learn more

10-Day Weather Forecast

Advertisements
Track Severe Weather on mobile